Time;durP1;ratioP1;P1;durP2;ratioP2;P2;SDS_P1;SDS_P2;PMS_P1;PMS_P2;Temp;Humidity;BMP_temperature;BMP_pressure;BME280_temperature;BME280_humidity;BME280_pressure;Samples;Min_cycle;Max_cycle;Signal;HPM_P1;HPM_P2
2023/07/20 00:00:03;;;;;;;3.55;0.85;;;;;;;;;;2057829;28;20049;-68
2023/07/20 00:01:22;;;;;;;0.70;0.57;;;;;;;;;;2057037;28;20043;-67
2023/07/20 00:02:41;;;;;;;0.55;0.43;;;;;;;;;;2058730;28;20017;-65
2023/07/20 00:04:00;;;;;;;0.90;0.60;;;;;;;;;;2046399;28;20031;-68
2023/07/20 00:05:21;;;;;;;2.72;0.75;;;;;;;;;;2052954;28;20027;-67
2023/07/20 00:06:40;;;;;;;2.13;0.70;;;;;;;;;;2049022;28;20105;-68
2023/07/20 00:07:59;;;;;;;1.48;0.60;;;;;;;;;;2045461;28;20019;-68
2023/07/20 00:09:18;;;;;;;1.73;0.73;;;;;;;;;;2051589;28;20023;-67
2023/07/20 00:10:37;;;;;;;1.42;0.85;;;;;;;;;;2058136;28;20026;-68
2023/07/20 00:11:56;;;;;;;1.27;0.70;;;;;;;;;;2058930;28;20023;-68
2023/07/20 00:13:15;;;;;;;1.75;0.52;;;;;;;;;;2058573;28;20035;-69
2023/07/20 00:14:34;;;;;;;1.85;0.60;;;;;;;;;;2057715;28;20039;-67
2023/07/20 00:15:53;;;;;;;0.63;0.60;;;;;;;;;;2058313;28;20064;-67
2023/07/20 00:17:12;;;;;;;3.30;0.70;;;;;;;;;;2059252;28;20030;-67
2023/07/20 00:18:31;;;;;;;1.98;0.80;;;;;;;;;;2063683;28;20046;-67
2023/07/20 00:19:50;;;;;;;1.58;0.70;;;;;;;;;;2058008;28;20106;-66
2023/07/20 00:21:09;;;;;;;0.98;0.50;;;;;;;;;;2058275;28;20853;-67
2023/07/20 00:22:28;;;;;;;1.60;0.60;;;;;;;;;;2059199;28;20038;-67
2023/07/20 00:23:47;;;;;;;0.95;0.50;;;;;;;;;;2048168;28;20034;-67
2023/07/20 00:25:06;;;;;;;0.90;0.40;;;;;;;;;;2052769;28;20101;-66
2023/07/20 00:26:25;;;;;;;3.67;0.75;;;;;;;;;;2056398;28;20069;-67
2023/07/20 00:27:44;;;;;;;1.35;0.65;;;;;;;;;;2047728;28;20027;-67
2023/07/20 00:29:03;;;;;;;1.33;0.63;;;;;;;;;;2053808;28;20035;-67
2023/07/20 00:30:22;;;;;;;1.50;0.70;;;;;;;;;;2059203;28;20943;-67
2023/07/20 00:31:43;;;;;;;2.72;0.90;;;;;;;;;;2059580;28;20065;-67
2023/07/20 00:33:02;;;;;;;1.48;0.52;;;;;;;;;;2056205;28;20055;-67
2023/07/20 00:34:21;;;;;;;1.48;0.50;;;;;;;;;;2058618;28;20043;-67
2023/07/20 00:35:40;;;;;;;0.88;0.50;;;;;;;;;;2047709;28;20035;-67
2023/07/20 00:36:59;;;;;;;2.25;0.80;;;;;;;;;;2057570;28;20039;-68
2023/07/20 00:38:18;;;;;;;3.95;0.70;;;;;;;;;;2062105;28;20039;-66
2023/07/20 00:39:37;;;;;;;1.85;0.60;;;;;;;;;;2050929;28;20517;-67
2023/07/20 00:40:55;;;;;;;1.67;0.60;;;;;;;;;;2054641;28;20077;-67
2023/07/20 00:42:14;;;;;;;2.70;0.93;;;;;;;;;;2057609;28;20039;-68
2023/07/20 00:43:33;;;;;;;2.45;0.60;;;;;;;;;;2054009;28;20043;-67
2023/07/20 00:44:52;;;;;;;1.15;0.70;;;;;;;;;;2056774;28;20030;-69
2023/07/20 00:46:11;;;;;;;3.08;1.05;;;;;;;;;;2058244;28;20030;-68
2023/07/20 00:47:31;;;;;;;3.13;0.80;;;;;;;;;;2057648;28;20043;-67
2023/07/20 00:48:51;;;;;;;1.55;1.17;;;;;;;;;;2065304;28;20027;-68
2023/07/20 00:50:10;;;;;;;2.15;0.70;;;;;;;;;;2056487;28;20027;-68
2023/07/20 00:51:29;;;;;;;1.45;1.02;;;;;;;;;;2057432;28;20038;-68
2023/07/20 00:52:48;;;;;;;2.38;0.98;;;;;;;;;;2057384;28;20674;-67
2023/07/20 00:54:08;;;;;;;2.53;0.57;;;;;;;;;;2057563;28;20031;-68
2023/07/20 00:55:28;;;;;;;2.33;0.65;;;;;;;;;;2057883;28;20061;-68
2023/07/20 00:56:46;;;;;;;5.15;0.90;;;;;;;;;;2058077;28;20030;-68
2023/07/20 00:58:06;;;;;;;2.45;1.10;;;;;;;;;;2059534;28;20042;-68
2023/07/20 00:59:26;;;;;;;6.28;1.17;;;;;;;;;;2058863;28;20034;-70
2023/07/20 01:00:45;;;;;;;2.42;0.65;;;;;;;;;;2058291;28;20043;-67
2023/07/20 01:02:04;;;;;;;4.78;1.60;;;;;;;;;;2084158;28;20084;-68
2023/07/20 01:03:22;;;;;;;5.15;1.35;;;;;;;;;;2085316;28;20052;-68
2023/07/20 01:04:41;;;;;;;0.65;0.55;;;;;;;;;;2083719;28;20418;-68
2023/07/20 01:06:07;;;;;;;2.40;0.90;;;;;;;;;;2082981;28;20041;-70
2023/07/20 01:07:30;;;;;;;3.13;0.90;;;;;;;;;;2084286;28;20060;-68
2023/07/20 01:08:52;;;;;;;3.30;0.93;;;;;;;;;;2083860;28;20017;-68
2023/07/20 01:10:20;;;;;;;3.60;1.10;;;;;;;;;;2082796;28;20045;-68
2023/07/20 01:11:59;;;;;;;5.20;0.65;;;;;;;;;;2085290;28;20029;-71
2023/07/20 01:13:18;;;;;;;2.83;0.75;;;;;;;;;;2084162;28;20025;-68
2023/07/20 01:14:37;;;;;;;1.67;0.80;;;;;;;;;;2084372;28;20025;-68
2023/07/20 01:16:00;;;;;;;4.53;0.90;;;;;;;;;;2084952;28;20386;-68
2023/07/20 01:17:19;;;;;;;;;;;;;;;;;;2084520;28;20033;-67
2023/07/20 01:18:38;;;;;;;2.83;0.88;;;;;;;;;;2084343;28;19909;-68
2023/07/20 01:19:57;;;;;;;4.65;0.80;;;;;;;;;;2085140;28;20108;-68
2023/07/20 01:21:21;;;;;;;1.35;0.88;;;;;;;;;;2084404;28;20045;-68
2023/07/20 01:22:44;;;;;;;4.05;0.75;;;;;;;;;;2084647;28;20036;-68
2023/07/20 01:24:09;;;;;;;4.18;0.75;;;;;;;;;;2084091;28;20029;-67
2023/07/20 01:25:44;;;;;;;2.78;1.10;;;;;;;;;;2084963;28;20481;-68
2023/07/20 01:27:03;;;;;;;3.67;0.80;;;;;;;;;;2085236;28;20064;-68
2023/07/20 01:28:28;;;;;;;3.90;0.85;;;;;;;;;;2084818;28;20030;-68
2023/07/20 01:30:06;;;;;;;2.35;1.02;;;;;;;;;;2083841;28;20112;-73
2023/07/20 01:31:26;;;;;;;3.67;0.95;;;;;;;;;;2083561;28;20029;-67
2023/07/20 01:32:46;;;;;;;6.35;0.90;;;;;;;;;;2083720;28;20030;-69
2023/07/20 01:34:07;;;;;;;2.55;0.98;;;;;;;;;;2084720;28;20025;-68
2023/07/20 01:35:28;;;;;;;2.33;1.08;;;;;;;;;;2091510;28;20036;-68
2023/07/20 01:36:48;;;;;;;4.78;1.05;;;;;;;;;;2086734;28;20022;-68
2023/07/20 01:38:08;;;;;;;2.75;1.25;;;;;;;;;;2084260;28;20033;-69
2023/07/20 01:39:27;;;;;;;4.43;0.80;;;;;;;;;;2083283;28;20331;-65
2023/07/20 01:40:46;;;;;;;2.30;0.77;;;;;;;;;;2083503;28;20125;-68
2023/07/20 01:42:06;;;;;;;3.03;1.00;;;;;;;;;;2084835;28;20045;-68
2023/07/20 01:43:25;;;;;;;4.07;0.82;;;;;;;;;;2084871;28;20033;-68
2023/07/20 01:44:44;;;;;;;2.22;0.75;;;;;;;;;;2084389;28;20030;-67
2023/07/20 01:46:02;;;;;;;4.20;0.90;;;;;;;;;;2082754;28;20033;-71
2023/07/20 01:47:22;;;;;;;1.10;0.60;;;;;;;;;;2083381;28;20065;-69
2023/07/20 01:48:41;;;;;;;1.48;0.88;;;;;;;;;;2084848;28;20021;-67
2023/07/20 01:50:00;;;;;;;2.85;1.08;;;;;;;;;;2084741;28;21008;-67
2023/07/20 01:51:19;;;;;;;2.28;1.00;;;;;;;;;;2082941;28;20029;-67
2023/07/20 01:52:37;;;;;;;5.50;1.73;;;;;;;;;;2084850;28;20560;-67
2023/07/20 01:53:56;;;;;;;4.95;1.13;;;;;;;;;;2080653;28;20037;-68
2023/07/20 01:55:15;;;;;;;2.05;0.90;;;;;;;;;;2082103;28;20029;-67
2023/07/20 01:56:34;;;;;;;2.97;0.88;;;;;;;;;;2084190;28;20516;-68
2023/07/20 01:57:55;;;;;;;5.30;0.93;;;;;;;;;;2084478;28;20029;-68
2023/07/20 01:59:13;;;;;;;3.10;1.25;;;;;;;;;;2085055;28;20030;-68
2023/07/20 02:00:32;;;;;;;3.28;1.00;;;;;;;;;;2083684;28;20034;-67
2023/07/20 02:01:52;;;;;;;3.30;1.20;;;;;;;;;;2060820;28;20035;-70
2023/07/20 02:03:11;;;;;;;2.67;1.02;;;;;;;;;;2059429;28;20031;-68
2023/07/20 02:04:30;;;;;;;3.92;0.95;;;;;;;;;;2058615;28;20039;-68
2023/07/20 02:05:50;;;;;;;4.30;1.10;;;;;;;;;;2058778;28;20695;-66
2023/07/20 02:07:09;;;;;;;5.20;1.17;;;;;;;;;;2057870;28;20039;-68
2023/07/20 02:08:28;;;;;;;2.53;1.10;;;;;;;;;;2058030;28;20026;-68
2023/07/20 02:09:47;;;;;;;2.20;0.95;;;;;;;;;;2058435;28;20023;-68
2023/07/20 02:11:06;;;;;;;4.35;1.02;;;;;;;;;;2059268;28;20034;-66
2023/07/20 02:12:24;;;;;;;3.35;0.90;;;;;;;;;;2061616;28;20113;-68
2023/07/20 02:13:43;;;;;;;4.38;1.33;;;;;;;;;;2058467;28;20046;-68
2023/07/20 02:15:03;;;;;;;5.65;1.00;;;;;;;;;;2056344;28;20054;-66
2023/07/20 02:16:22;;;;;;;2.20;0.90;;;;;;;;;;2059347;28;20042;-68
2023/07/20 02:17:41;;;;;;;2.13;0.90;;;;;;;;;;2061066;28;20051;-68
2023/07/20 02:19:00;;;;;;;4.95;1.05;;;;;;;;;;2060631;28;20062;-68
2023/07/20 02:20:19;;;;;;;4.22;1.20;;;;;;;;;;2057326;28;20031;-63
2023/07/20 02:21:38;;;;;;;3.17;0.90;;;;;;;;;;2058400;28;20030;-67
2023/07/20 02:22:58;;;;;;;3.63;1.25;;;;;;;;;;2058830;28;20094;-67
2023/07/20 02:24:17;;;;;;;5.90;1.25;;;;;;;;;;2058154;28;20058;-68
2023/07/20 02:25:36;;;;;;;7.25;1.73;;;;;;;;;;2058424;28;20031;-69
2023/07/20 02:26:55;;;;;;;7.15;1.30;;;;;;;;;;2058335;28;20142;-68
2023/07/20 02:28:14;;;;;;;3.35;1.10;;;;;;;;;;2059126;28;20034;-67
2023/07/20 02:29:33;;;;;;;1.67;0.95;;;;;;;;;;2059303;28;20064;-69
2023/07/20 02:30:53;;;;;;;3.20;0.90;;;;;;;;;;2058216;28;20030;-67
2023/07/20 02:32:12;;;;;;;5.60;1.17;;;;;;;;;;2057727;28;20399;-68
2023/07/20 02:33:31;;;;;;;5.00;1.25;;;;;;;;;;2056213;28;20688;-67
2023/07/20 02:34:50;;;;;;;4.30;1.10;;;;;;;;;;2058562;28;20031;-68
2023/07/20 02:36:09;;;;;;;3.40;1.10;;;;;;;;;;2061804;28;20110;-63
2023/07/20 02:37:28;;;;;;;2.95;1.13;;;;;;;;;;2057998;28;20023;-68
2023/07/20 02:38:47;;;;;;;4.03;1.00;;;;;;;;;;2057071;28;20035;-68
2023/07/20 02:40:07;;;;;;;3.33;1.60;;;;;;;;;;2057212;28;20046;-68
2023/07/20 02:41:26;;;;;;;3.40;1.00;;;;;;;;;;2059038;28;20030;-68
2023/07/20 02:42:45;;;;;;;3.22;1.00;;;;;;;;;;2059311;28;20031;-68
2023/07/20 02:44:04;;;;;;;5.97;1.23;;;;;;;;;;2059336;28;20039;-67
2023/07/20 02:45:23;;;;;;;5.45;1.10;;;;;;;;;;2058454;28;20050;-68
2023/07/20 02:46:42;;;;;;;5.25;1.10;;;;;;;;;;2058843;28;20034;-68
2023/07/20 02:48:02;;;;;;;1.55;0.73;;;;;;;;;;2057913;28;20702;-68
2023/07/20 02:49:21;;;;;;;3.42;1.08;;;;;;;;;;2057119;28;20170;-68
2023/07/20 02:50:40;;;;;;;6.63;1.20;;;;;;;;;;2057195;28;20023;-67
2023/07/20 02:51:59;;;;;;;2.85;0.98;;;;;;;;;;2061346;28;20034;-68
2023/07/20 02:53:18;;;;;;;3.75;1.02;;;;;;;;;;2057854;28;20039;-68
2023/07/20 02:54:37;;;;;;;5.32;1.50;;;;;;;;;;2057645;28;20480;-68
2023/07/20 02:55:56;;;;;;;3.50;1.23;;;;;;;;;;2057452;28;20114;-68
2023/07/20 02:57:15;;;;;;;2.38;1.00;;;;;;;;;;2056113;28;20076;-66
2023/07/20 02:58:37;;;;;;;5.38;1.38;;;;;;;;;;2058466;28;20035;-68
2023/07/20 02:59:56;;;;;;;4.90;1.20;;;;;;;;;;2065096;28;20028;-68
2023/07/20 03:01:15;;;;;;;2.42;1.25;;;;;;;;;;2057153;28;20248;-69
2023/07/20 03:02:34;;;;;;;6.03;1.40;;;;;;;;;;2055736;28;20038;-69
2023/07/20 03:03:53;;;;;;;4.90;1.70;;;;;;;;;;2057247;28;20031;-69
2023/07/20 03:05:13;;;;;;;2.42;0.95;;;;;;;;;;2056519;28;20027;-69
2023/07/20 03:06:35;;;;;;;3.63;1.10;;;;;;;;;;2048118;28;20042;-67
2023/07/20 03:07:58;;;;;;;3.90;1.48;;;;;;;;;;2055329;28;20127;-67
2023/07/20 03:09:18;;;;;;;;;;;;;;;;;;2066129;28;20035;-67
2023/07/20 03:10:43;;;;;;;3.30;1.23;;;;;;;;;;2059442;28;19917;-67
2023/07/20 03:12:04;;;;;;;5.18;1.30;;;;;;;;;;2061853;28;20041;-68
2023/07/20 03:13:24;;;;;;;4.75;1.63;;;;;;;;;;2055655;28;20027;-66
2023/07/20 03:14:43;;;;;;;2.33;1.33;;;;;;;;;;2058681;28;20031;-66
2023/07/20 03:16:02;;;;;;;3.60;1.30;;;;;;;;;;2062228;28;20417;-67
2023/07/20 03:17:21;;;;;;;3.00;1.13;;;;;;;;;;2058133;28;20030;-67
2023/07/20 03:18:40;;;;;;;4.15;1.30;;;;;;;;;;2058971;28;20039;-68
2023/07/20 03:20:00;;;;;;;2.97;1.38;;;;;;;;;;2057555;28;20039;-68
2023/07/20 03:21:19;;;;;;;5.43;1.25;;;;;;;;;;2058340;28;20038;-67
2023/07/20 03:22:38;;;;;;;3.28;1.05;;;;;;;;;;2058958;28;20035;-70
2023/07/20 03:23:57;;;;;;;5.53;1.60;;;;;;;;;;2061102;28;20025;-65
2023/07/20 03:25:17;;;;;;;6.90;1.50;;;;;;;;;;2057716;28;20042;-68
2023/07/20 03:26:36;;;;;;;3.85;1.45;;;;;;;;;;2057911;28;20035;-68
2023/07/20 03:27:55;;;;;;;2.58;1.02;;;;;;;;;;2062155;28;20395;-68
2023/07/20 03:29:16;;;;;;;1.67;1.13;;;;;;;;;;2057860;28;20484;-68
2023/07/20 03:30:35;;;;;;;2.92;1.08;;;;;;;;;;2054806;28;20412;-68
2023/07/20 03:31:54;;;;;;;4.85;1.35;;;;;;;;;;2056269;28;20504;-68
2023/07/20 03:33:13;;;;;;;2.38;1.42;;;;;;;;;;2057035;28;20035;-68
2023/07/20 03:34:32;;;;;;;3.72;1.27;;;;;;;;;;2057873;28;20034;-68
2023/07/20 03:35:51;;;;;;;6.75;1.58;;;;;;;;;;2058563;28;20030;-65
2023/07/20 03:37:10;;;;;;;8.88;1.40;;;;;;;;;;2058456;28;20070;-67
2023/07/20 03:38:29;;;;;;;2.75;1.30;;;;;;;;;;2057538;28;20038;-68
2023/07/20 03:39:48;;;;;;;2.83;1.33;;;;;;;;;;2056797;28;20027;-68
2023/07/20 03:41:07;;;;;;;2.03;1.40;;;;;;;;;;2059179;28;20031;-66
2023/07/20 03:42:26;;;;;;;5.35;1.55;;;;;;;;;;2057980;28;20031;-70
2023/07/20 03:43:45;;;;;;;4.38;1.38;;;;;;;;;;2061032;28;20241;-63
2023/07/20 03:45:06;;;;;;;2.60;1.30;;;;;;;;;;2057187;28;20035;-68
2023/07/20 03:46:24;;;;;;;4.35;1.27;;;;;;;;;;2060112;28;20055;-65
2023/07/20 03:47:44;;;;;;;4.65;1.40;;;;;;;;;;2057791;28;20084;-68
2023/07/20 03:49:03;;;;;;;8.07;1.55;;;;;;;;;;2056093;28;20038;-68
2023/07/20 03:50:22;;;;;;;2.83;1.20;;;;;;;;;;2057350;28;20031;-65
2023/07/20 03:51:41;;;;;;;4.38;1.23;;;;;;;;;;2057652;28;20039;-68
2023/07/20 03:53:00;;;;;;;6.20;1.73;;;;;;;;;;2059613;28;20030;-68
2023/07/20 03:54:19;;;;;;;6.10;1.65;;;;;;;;;;2057137;28;20039;-68
2023/07/20 03:55:40;;;;;;;5.47;1.38;;;;;;;;;;2056866;28;20066;-68
2023/07/20 03:57:00;;;;;;;6.35;1.73;;;;;;;;;;2050041;28;20400;-68
2023/07/20 03:58:19;;;;;;;6.88;1.30;;;;;;;;;;2055668;28;20031;-68
2023/07/20 03:59:39;;;;;;;2.40;1.52;;;;;;;;;;2050415;28;20036;-68
2023/07/20 04:00:58;;;;;;;6.30;1.33;;;;;;;;;;2052861;28;20125;-68
2023/07/20 04:02:17;;;;;;;5.68;1.40;;;;;;;;;;2059300;28;20059;-68
2023/07/20 04:03:36;;;;;;;3.78;1.70;;;;;;;;;;2059167;28;20070;-68
2023/07/20 04:04:56;;;;;;;3.53;1.27;;;;;;;;;;2057241;28;20059;-68
2023/07/20 04:06:16;;;;;;;3.83;1.30;;;;;;;;;;2057504;28;20555;-68
2023/07/20 04:07:35;;;;;;;4.15;1.80;;;;;;;;;;2058950;28;20034;-68
2023/07/20 04:08:54;;;;;;;3.95;1.38;;;;;;;;;;2057721;28;20026;-68
2023/07/20 04:10:14;;;;;;;4.78;1.48;;;;;;;;;;2056634;28;20031;-67
2023/07/20 04:11:33;;;;;;;4.05;1.85;;;;;;;;;;2056414;28;20105;-68
2023/07/20 04:12:52;;;;;;;2.17;1.10;;;;;;;;;;2056949;28;20142;-67
2023/07/20 04:14:10;;;;;;;3.05;1.50;;;;;;;;;;2059045;28;20499;-67
2023/07/20 04:15:30;;;;;;;2.03;1.35;;;;;;;;;;2057798;28;20141;-68
2023/07/20 04:16:51;;;;;;;3.90;1.25;;;;;;;;;;2056582;28;20400;-70
2023/07/20 04:18:10;;;;;;;7.95;1.42;;;;;;;;;;2057268;28;20439;-68
2023/07/20 04:19:29;;;;;;;7.20;1.58;;;;;;;;;;2057840;28;20416;-68
2023/07/20 04:20:48;;;;;;;5.00;1.60;;;;;;;;;;2061204;28;20089;-68
2023/07/20 04:22:06;;;;;;;3.38;1.55;;;;;;;;;;2058426;28;20034;-64
2023/07/20 04:23:25;;;;;;;6.22;1.70;;;;;;;;;;2057640;28;20062;-64
2023/07/20 04:24:44;;;;;;;3.78;1.52;;;;;;;;;;2057011;28;20047;-68
2023/07/20 04:26:04;;;;;;;5.30;1.60;;;;;;;;;;2056877;28;20038;-68
2023/07/20 04:27:22;;;;;;;4.78;1.45;;;;;;;;;;2057995;28;20419;-68
2023/07/20 04:28:42;;;;;;;5.40;1.58;;;;;;;;;;2057555;28;20085;-68
2023/07/20 04:30:02;;;;;;;4.38;1.40;;;;;;;;;;2056330;28;20027;-68
2023/07/20 04:31:21;;;;;;;3.65;1.60;;;;;;;;;;2056542;28;20477;-63
2023/07/20 04:32:46;;;;;;;4.20;1.60;;;;;;;;;;2057033;28;20054;-68
2023/07/20 04:34:05;;;;;;;4.63;1.40;;;;;;;;;;2058638;28;20030;-68
2023/07/20 04:35:42;;;;;;;6.85;1.77;;;;;;;;;;2057104;28;20030;-68
2023/07/20 04:37:02;;;;;;;8.50;1.85;;;;;;;;;;2057545;28;20038;-68
2023/07/20 04:38:21;;;;;;;6.10;1.70;;;;;;;;;;2057572;28;20046;-68
2023/07/20 04:39:40;;;;;;;6.95;2.05;;;;;;;;;;2060834;28;20057;-68
2023/07/20 04:40:59;;;;;;;3.90;1.85;;;;;;;;;;2056906;28;20518;-68
2023/07/20 04:42:18;;;;;;;4.10;1.48;;;;;;;;;;2057379;28;20122;-68
2023/07/20 04:43:41;;;;;;;4.13;1.80;;;;;;;;;;2058465;28;20035;-68
2023/07/20 04:45:00;;;;;;;4.05;1.50;;;;;;;;;;2058312;28;20038;-68
2023/07/20 04:46:21;;;;;;;7.90;2.10;;;;;;;;;;2057310;28;20030;-71
2023/07/20 04:47:40;;;;;;;4.10;1.60;;;;;;;;;;2055607;28;20051;-68
2023/07/20 04:48:59;;;;;;;7.90;1.98;;;;;;;;;;2057393;28;20557;-69
2023/07/20 04:50:18;;;;;;;7.35;2.55;;;;;;;;;;2058186;28;20511;-67
2023/07/20 04:51:37;;;;;;;6.15;1.90;;;;;;;;;;2057105;28;20046;-69
2023/07/20 04:52:56;;;;;;;7.75;1.40;;;;;;;;;;2063798;28;20523;-68
2023/07/20 04:54:16;;;;;;;4.53;1.80;;;;;;;;;;2057191;28;20073;-68
2023/07/20 04:55:36;;;;;;;11.15;2.13;;;;;;;;;;2058340;28;20581;-70
2023/07/20 04:56:56;;;;;;;12.45;1.90;;;;;;;;;;2065162;28;20032;-67
2023/07/20 04:58:14;;;;;;;6.65;2.13;;;;;;;;;;2057836;28;20027;-67
2023/07/20 04:59:33;;;;;;;5.93;1.85;;;;;;;;;;2057434;28;20475;-66
2023/07/20 05:00:53;;;;;;;9.07;2.03;;;;;;;;;;2048450;28;20115;-66
2023/07/20 05:02:12;;;;;;;8.18;1.90;;;;;;;;;;2054689;28;20059;-67
2023/07/20 05:03:31;;;;;;;5.47;2.10;;;;;;;;;;2057016;28;20034;-67
2023/07/20 05:04:50;;;;;;;8.50;2.00;;;;;;;;;;2056015;28;20027;-64
2023/07/20 05:06:09;;;;;;;8.18;1.83;;;;;;;;;;2060271;28;20427;-67
2023/07/20 05:07:28;;;;;;;6.10;1.98;;;;;;;;;;2057640;28;20038;-66
2023/07/20 05:08:47;;;;;;;5.32;2.15;;;;;;;;;;2058696;28;20027;-67
2023/07/20 05:10:07;;;;;;;5.63;2.08;;;;;;;;;;2057117;28;20060;-68
2023/07/20 05:11:26;;;;;;;6.50;1.77;;;;;;;;;;2056795;28;20280;-67
2023/07/20 05:12:45;;;;;;;6.22;2.05;;;;;;;;;;2057442;28;20035;-67
2023/07/20 05:14:04;;;;;;;7.38;1.98;;;;;;;;;;2058101;28;20035;-67
2023/07/20 05:15:23;;;;;;;5.97;1.83;;;;;;;;;;2057663;28;20035;-68
2023/07/20 05:16:42;;;;;;;10.55;1.98;;;;;;;;;;2049122;28;20031;-68
2023/07/20 05:18:01;;;;;;;5.63;1.85;;;;;;;;;;2053602;28;20026;-67
2023/07/20 05:19:20;;;;;;;3.42;1.70;;;;;;;;;;2057169;28;20031;-67
2023/07/20 05:20:39;;;;;;;6.38;1.70;;;;;;;;;;2059341;28;20027;-67
2023/07/20 05:21:57;;;;;;;7.78;2.28;;;;;;;;;;2049155;28;20455;-67
2023/07/20 05:23:19;;;;;;;4.78;2.33;;;;;;;;;;2053763;28;20113;-67
2023/07/20 05:24:38;;;;;;;5.13;1.95;;;;;;;;;;2054960;28;20027;-70
2023/07/20 05:25:58;;;;;;;8.18;2.17;;;;;;;;;;2057249;28;20036;-68
2023/07/20 05:27:17;;;;;;;8.60;2.30;;;;;;;;;;2056107;28;20031;-67
2023/07/20 05:28:36;;;;;;;6.85;1.90;;;;;;;;;;2057169;28;20035;-68
2023/07/20 05:29:55;;;;;;;4.55;1.63;;;;;;;;;;2056077;28;20511;-68
2023/07/20 05:31:14;;;;;;;5.10;2.08;;;;;;;;;;2055686;28;20034;-68
2023/07/20 05:32:33;;;;;;;7.07;1.70;;;;;;;;;;2056498;28;20035;-68
2023/07/20 05:33:53;;;;;;;4.18;2.55;;;;;;;;;;2061590;28;20488;-67
2023/07/20 05:35:12;;;;;;;3.67;1.80;;;;;;;;;;2048123;28;20039;-68
2023/07/20 05:36:31;;;;;;;7.93;2.47;;;;;;;;;;2054176;28;20023;-68
2023/07/20 05:37:50;;;;;;;6.40;1.80;;;;;;;;;;2055996;28;20102;-68
2023/07/20 05:39:09;;;;;;;12.18;2.78;;;;;;;;;;2056521;28;21030;-68
2023/07/20 05:40:28;;;;;;;8.50;2.50;;;;;;;;;;2058246;28;20035;-68
2023/07/20 05:41:47;;;;;;;6.95;1.92;;;;;;;;;;2047903;28;20116;-68
2023/07/20 05:43:05;;;;;;;4.20;1.70;;;;;;;;;;2054042;28;20026;-68
2023/07/20 05:44:24;;;;;;;5.53;2.08;;;;;;;;;;2061262;28;20026;-68
2023/07/20 05:45:45;;;;;;;6.20;1.90;;;;;;;;;;2066150;28;20019;-64
2023/07/20 05:47:03;;;;;;;7.18;2.70;;;;;;;;;;2068969;28;20500;-65
2023/07/20 05:48:23;;;;;;;5.68;2.53;;;;;;;;;;2057352;28;20027;-68
2023/07/20 05:49:42;;;;;;;5.90;1.70;;;;;;;;;;2057235;28;20106;-68
2023/07/20 05:51:02;;;;;;;8.20;2.08;;;;;;;;;;2057191;28;20027;-67
2023/07/20 05:52:21;;;;;;;7.78;1.58;;;;;;;;;;2058706;28;20035;-68
2023/07/20 05:53:40;;;;;;;7.00;2.00;;;;;;;;;;2057264;28;20062;-68
2023/07/20 05:54:59;;;;;;;5.40;1.60;;;;;;;;;;2057465;28;20414;-68
2023/07/20 05:56:17;;;;;;;6.35;2.00;;;;;;;;;;2055340;28;20115;-68
2023/07/20 05:57:39;;;;;;;4.50;2.35;;;;;;;;;;2055748;28;20066;-69
2023/07/20 05:58:58;;;;;;;6.55;2.08;;;;;;;;;;2059484;28;20038;-68
2023/07/20 06:00:19;;;;;;;5.47;1.88;;;;;;;;;;2058128;28;20034;-69
2023/07/20 06:01:38;;;;;;;6.13;1.90;;;;;;;;;;2057716;28;20039;-68
2023/07/20 06:02:56;;;;;;;8.60;2.20;;;;;;;;;;2059231;28;20042;-71
2023/07/20 06:04:16;;;;;;;4.80;2.05;;;;;;;;;;2059030;28;20387;-70
2023/07/20 06:05:35;;;;;;;14.40;2.58;;;;;;;;;;2057847;28;20043;-71
2023/07/20 06:06:54;;;;;;;10.10;2.55;;;;;;;;;;2056694;28;20428;-67
2023/07/20 06:08:13;;;;;;;6.68;1.95;;;;;;;;;;2058885;28;20022;-68
2023/07/20 06:09:32;;;;;;;5.97;2.15;;;;;;;;;;2062823;28;20044;-70
2023/07/20 06:10:54;;;;;;;7.30;1.85;;;;;;;;;;2058689;28;20054;-68
2023/07/20 06:12:13;;;;;;;5.97;1.92;;;;;;;;;;2058038;28;20022;-68
2023/07/20 06:13:32;;;;;;;6.30;2.13;;;;;;;;;;2058993;28;20034;-69
2023/07/20 06:14:50;;;;;;;5.40;2.08;;;;;;;;;;2058912;28;20046;-70
2023/07/20 06:16:09;;;;;;;7.50;2.08;;;;;;;;;;2057649;28;20031;-66
2023/07/20 06:17:28;;;;;;;6.45;1.92;;;;;;;;;;2059593;28;20026;-67
2023/07/20 06:18:48;;;;;;;7.75;2.30;;;;;;;;;;2058894;28;20433;-65
2023/07/20 06:20:07;;;;;;;8.13;2.25;;;;;;;;;;2057276;28;20056;-66
2023/07/20 06:21:26;;;;;;;7.57;1.88;;;;;;;;;;2061765;28;20058;-67
2023/07/20 06:22:45;;;;;;;6.75;2.00;;;;;;;;;;2060109;28;20038;-70
2023/07/20 06:24:04;;;;;;;7.07;2.15;;;;;;;;;;2057860;28;20422;-71
2023/07/20 06:25:23;;;;;;;6.18;1.67;;;;;;;;;;2050614;28;20984;-65
2023/07/20 06:26:42;;;;;;;5.90;2.20;;;;;;;;;;2054510;28;20121;-69
2023/07/20 06:28:01;;;;;;;6.07;2.03;;;;;;;;;;2050831;28;20026;-69
2023/07/20 06:29:20;;;;;;;7.68;2.80;;;;;;;;;;2055005;28;20031;-72
2023/07/20 06:30:39;;;;;;;8.90;2.15;;;;;;;;;;2060562;28;20060;-69
2023/07/20 06:31:58;;;;;;;5.25;2.00;;;;;;;;;;2060890;28;20023;-69
2023/07/20 06:33:17;;;;;;;4.78;2.00;;;;;;;;;;2057656;28;20035;-72
2023/07/20 06:34:38;;;;;;;5.97;2.00;;;;;;;;;;2057738;28;20143;-69
2023/07/20 06:35:57;;;;;;;8.95;2.60;;;;;;;;;;2060806;28;20062;-70
2023/07/20 06:37:16;;;;;;;7.43;2.53;;;;;;;;;;2053947;28;20432;-69
2023/07/20 06:38:35;;;;;;;8.43;2.03;;;;;;;;;;2054133;28;20438;-69
2023/07/20 06:39:55;;;;;;;7.35;2.50;;;;;;;;;;2058562;28;20031;-65
2023/07/20 06:41:14;;;;;;;4.10;1.98;;;;;;;;;;2057809;28;20030;-72
2023/07/20 06:42:33;;;;;;;6.65;1.90;;;;;;;;;;2059678;28;20446;-71
2023/07/20 06:43:52;;;;;;;7.10;2.03;;;;;;;;;;2057738;28;20038;-71
2023/07/20 06:45:11;;;;;;;4.43;1.73;;;;;;;;;;2058826;28;20030;-68
2023/07/20 06:46:30;;;;;;;3.58;2.10;;;;;;;;;;2058722;28;20039;-68
2023/07/20 06:47:49;;;;;;;4.22;2.10;;;;;;;;;;2057593;28;20043;-70
2023/07/20 06:49:08;;;;;;;6.97;2.10;;;;;;;;;;2057725;28;20479;-68
2023/07/20 06:50:27;;;;;;;6.38;1.90;;;;;;;;;;2050016;28;20122;-69
2023/07/20 06:51:46;;;;;;;3.55;2.00;;;;;;;;;;2055529;28;20039;-69
2023/07/20 06:53:05;;;;;;;8.00;2.22;;;;;;;;;;2058927;28;20031;-68
2023/07/20 06:54:24;;;;;;;4.30;2.13;;;;;;;;;;2056370;28;20031;-68
2023/07/20 06:55:43;;;;;;;7.75;2.25;;;;;;;;;;2058485;28;20491;-68
2023/07/20 06:57:02;;;;;;;6.32;1.90;;;;;;;;;;2058361;28;20043;-69
2023/07/20 06:58:22;;;;;;;6.22;1.90;;;;;;;;;;2061890;28;20043;-69
2023/07/20 06:59:41;;;;;;;6.00;2.15;;;;;;;;;;2058597;28;20036;-69
2023/07/20 07:01:04;;;;;;;9.00;2.08;;;;;;;;;;2056946;28;20046;-68
2023/07/20 07:02:23;;;;;;;;;;;;;;;;;;2050463;28;20051;-69
2023/07/20 07:03:42;;;;;;;5.25;1.70;;;;;;;;;;2049921;28;19915;-68
2023/07/20 07:05:01;;;;;;;4.85;1.88;;;;;;;;;;2050095;28;20039;-69
2023/07/20 07:06:22;;;;;;;8.77;2.15;;;;;;;;;;2049104;28;20022;-64
2023/07/20 07:07:41;;;;;;;9.00;2.33;;;;;;;;;;2051103;28;20046;-68
2023/07/20 07:09:00;;;;;;;6.82;2.13;;;;;;;;;;2050187;28;20031;-68
2023/07/20 07:10:19;;;;;;;5.28;2.33;;;;;;;;;;2050344;28;20031;-68
2023/07/20 07:11:37;;;;;;;8.00;2.10;;;;;;;;;;2049478;28;20095;-68
2023/07/20 07:12:56;;;;;;;5.43;2.53;;;;;;;;;;2045844;28;20035;-66
2023/07/20 07:14:15;;;;;;;5.60;2.20;;;;;;;;;;2048729;28;20036;-68
2023/07/20 07:15:35;;;;;;;7.32;2.28;;;;;;;;;;2055282;28;20025;-68
2023/07/20 07:16:54;;;;;;;6.18;1.92;;;;;;;;;;2047742;28;20024;-65
2023/07/20 07:18:13;;;;;;;4.47;2.08;;;;;;;;;;2047362;28;20032;-68
2023/07/20 07:19:32;;;;;;;6.05;2.20;;;;;;;;;;2050773;28;20341;-68
2023/07/20 07:20:52;;;;;;;4.00;2.08;;;;;;;;;;2047410;28;20034;-69
2023/07/20 07:22:11;;;;;;;3.38;1.85;;;;;;;;;;2049040;28;20035;-70
2023/07/20 07:23:30;;;;;;;6.13;2.10;;;;;;;;;;2048236;28;20031;-70
2023/07/20 07:24:49;;;;;;;5.90;2.17;;;;;;;;;;2050577;28;20023;-66
2023/07/20 07:26:09;;;;;;;4.65;2.05;;;;;;;;;;2049506;28;20031;-70
2023/07/20 07:27:27;;;;;;;3.85;1.80;;;;;;;;;;2049541;28;20027;-69
2023/07/20 07:28:46;;;;;;;6.55;2.05;;;;;;;;;;2051948;28;20032;-64
2023/07/20 07:30:06;;;;;;;8.88;2.28;;;;;;;;;;2049578;28;20171;-68
2023/07/20 07:31:25;;;;;;;5.20;2.15;;;;;;;;;;2050436;28;20035;-67
2023/07/20 07:32:44;;;;;;;6.25;1.92;;;;;;;;;;2049232;28;20027;-69
2023/07/20 07:34:03;;;;;;;7.50;2.05;;;;;;;;;;2048590;28;20388;-69
2023/07/20 07:35:22;;;;;;;4.93;1.90;;;;;;;;;;2049878;28;20031;-68
2023/07/20 07:36:41;;;;;;;6.07;1.90;;;;;;;;;;2049732;28;20031;-69
2023/07/20 07:38:00;;;;;;;4.97;2.10;;;;;;;;;;2049118;28;20039;-65
2023/07/20 07:39:19;;;;;;;3.50;1.70;;;;;;;;;;2049122;28;20027;-68
2023/07/20 07:40:38;;;;;;;6.55;1.98;;;;;;;;;;2053551;28;20025;-69
2023/07/20 07:41:57;;;;;;;6.15;2.03;;;;;;;;;;2049826;28;20035;-68
2023/07/20 07:43:16;;;;;;;4.18;1.98;;;;;;;;;;2048858;28;20031;-66
2023/07/20 07:44:35;;;;;;;5.45;1.73;;;;;;;;;;2055166;28;20062;-67
2023/07/20 07:45:55;;;;;;;3.58;1.98;;;;;;;;;;2050258;28;20031;-68
2023/07/20 07:47:14;;;;;;;4.25;1.73;;;;;;;;;;2050037;28;20031;-67
2023/07/20 07:48:33;;;;;;;3.88;1.63;;;;;;;;;;2057679;28;20059;-69
2023/07/20 07:49:52;;;;;;;10.00;1.75;;;;;;;;;;2049077;28;20023;-70
2023/07/20 07:51:13;;;;;;;4.70;1.67;;;;;;;;;;2052613;28;20055;-67
2023/07/20 07:52:32;;;;;;;7.97;1.67;;;;;;;;;;2050435;28;20044;-68
2023/07/20 07:53:51;;;;;;;7.43;1.85;;;;;;;;;;2049453;28;20043;-66
2023/07/20 07:55:10;;;;;;;4.20;1.90;;;;;;;;;;2048286;28;20031;-68
2023/07/20 07:56:29;;;;;;;3.60;1.70;;;;;;;;;;2049700;28;20027;-68